Time;durP1;ratioP1;P1;durP2;ratioP2;P2;SDS_P1;SDS_P2;PMS_P1;PMS_P2;Temp;Humidity;BMP_temperature;BMP_pressure;BME280_temperature;BME280_humidity;BME280_pressure;Samples;Min_cycle;Max_cycle;Signal;HPM_P1;HPM_P2
2021/12/04 00:02:05;;;;;;;;;65.25;53.25;;;;;4.71;98.31;100138.09;4952022;28;11077;-66
2021/12/04 00:04:37;;;;;;;;;68.00;52.75;;;;;4.75;98.77;100134.78;4952432;28;11170;-67
2021/12/04 00:07:05;;;;;;;;;63.50;50.00;;;;;4.78;98.45;100128.00;4952388;28;11241;-66
2021/12/04 00:09:31;;;;;;;;;60.00;50.50;;;;;4.73;98.33;100128.66;4952267;28;11211;-66
2021/12/04 00:12:02;;;;;;;;;64.00;51.75;;;;;4.74;98.70;100130.44;4952725;28;11061;-66
2021/12/04 00:14:29;;;;;;;;;64.75;52.75;;;;;4.73;98.69;100115.75;4952696;28;11224;-67
2021/12/04 00:16:56;;;;;;;;;55.25;45.25;;;;;4.74;98.79;100118.38;4951741;28;11312;-67
2021/12/04 00:19:22;;;;;;;;;68.00;55.25;;;;;4.71;98.47;100109.66;4952818;28;11198;-67
2021/12/04 00:21:47;;;;;;;;;64.75;53.50;;;;;4.66;98.92;100091.41;4952417;28;11304;-68
2021/12/04 00:24:13;;;;;;;;;63.25;51.75;;;;;4.71;98.75;100095.03;4952172;28;11236;-67
2021/12/04 00:26:45;;;;;;;;;59.25;46.50;;;;;4.75;98.73;100088.25;4952929;28;9517;-67
2021/12/04 00:29:11;;;;;;;;;59.75;50.50;;;;;4.81;98.59;100097.06;4952863;28;8814;-67
2021/12/04 00:31:37;;;;;;;;;59.75;50.25;;;;;4.70;98.52;100079.44;4952047;28;11132;-66
2021/12/04 00:34:03;;;;;;;;;56.75;45.25;;;;;4.77;98.50;100092.63;4956186;28;11227;-67
2021/12/04 00:49:52;;;;;;;;;51.50;46.25;;;;;4.90;98.54;100104.25;4955997;28;11189;-67
2021/12/04 00:52:17;;;;;;;;;56.00;48.75;;;;;4.94;98.32;100110.41;4955550;28;11644;-66
2021/12/04 00:54:43;;;;;;;;;63.75;50.00;;;;;4.83;98.29;100103.19;4955987;28;8791;-67
2021/12/04 00:57:09;;;;;;;;;58.25;49.00;;;;;4.84;98.47;100098.88;4956250;28;8911;-67
2021/12/04 00:59:34;;;;;;;;;61.50;51.50;;;;;4.79;98.48;100090.09;4955604;28;8796;-67
2021/12/04 01:01:59;;;;;;;;;74.25;56.75;;;;;4.85;98.51;100092.88;4956163;28;9283;-67
2021/12/04 01:04:25;;;;;;;;;63.50;51.75;;;;;4.80;98.59;100091.84;4956163;28;9628;-67
2021/12/04 01:06:50;;;;;;;;;66.50;50.25;;;;;4.81;98.52;100089.31;4955073;28;8812;-66
2021/12/04 01:09:18;;;;;;;;;51.25;46.25;;;;;4.80;98.79;100078.91;4956067;28;8788;-67
2021/12/04 01:11:45;;;;;;;;;63.25;50.75;;;;;4.84;98.77;100085.94;4955957;28;8808;-67
2021/12/04 01:14:12;;;;;;;;;67.00;50.25;;;;;4.82;98.72;100075.56;4955120;28;11239;-68
2021/12/04 01:16:38;;;;;;;;;57.50;48.75;;;;;4.84;98.73;100073.91;4955956;28;11702;-67
2021/12/04 01:19:04;;;;;;;;;73.25;55.75;;;;;4.77;98.62;100065.88;4955425;28;11803;-67
2021/12/04 01:21:29;;;;;;;;;65.50;52.75;;;;;4.83;98.78;100072.16;4955143;28;8796;-67
2021/12/04 01:23:55;;;;;;;;;66.00;55.00;;;;;4.79;98.92;100064.25;4955260;28;8828;-68
2021/12/04 01:26:21;;;;;;;;;66.25;54.00;;;;;4.83;98.91;100059.22;4955565;28;8815;-67
2021/12/04 01:28:48;;;;;;;;;60.75;51.00;;;;;4.84;98.71;100057.50;4955210;28;8840;-67
2021/12/04 01:31:13;;;;;;;;;66.50;53.50;;;;;4.89;98.78;100058.53;4955463;28;12076;-67
2021/12/04 01:33:40;;;;;;;;;66.00;51.25;;;;;4.89;98.76;100048.19;4955167;28;8807;-67
2021/12/04 01:36:09;;;;;;;;;61.00;49.50;;;;;4.86;98.89;100056.75;4955453;28;8810;-67
2021/12/04 01:38:35;;;;;;;;;61.50;49.25;;;;;4.84;98.85;100055.78;4955423;28;11192;-67
2021/12/04 01:41:03;;;;;;;;;64.50;48.00;;;;;4.87;98.81;100070.53;4954855;28;11054;-67
2021/12/04 01:43:28;;;;;;;;;69.25;53.75;;;;;4.84;99.02;100062.66;4955448;28;8792;-66
2021/12/04 01:45:55;;;;;;;;;65.00;49.75;;;;;4.86;98.88;100061.03;4954854;28;12073;-67
2021/12/04 01:48:22;;;;;;;;;70.25;56.00;;;;;4.80;98.91;100061.69;4954658;28;8926;-67
2021/12/04 01:50:47;;;;;;;;;71.25;56.25;;;;;4.81;99.04;100060.00;4955007;28;11158;-66
2021/12/04 01:53:12;;;;;;;;;68.25;51.00;;;;;4.76;99.00;100052.09;4955127;28;11545;-67
2021/12/04 01:55:38;;;;;;;;;63.50;52.50;;;;;4.84;99.02;100067.84;4954484;28;8819;-67
2021/12/04 01:58:05;;;;;;;;;64.50;52.25;;;;;4.90;99.05;100068.06;4955003;28;8810;-67
2021/12/04 02:00:33;;;;;;;;;70.25;54.50;;;;;4.80;99.35;100043.59;4955316;28;8800;-67
2021/12/04 02:02:59;;;;;;;;;61.50;51.00;;;;;4.87;99.19;100057.63;4954004;28;11159;-67
2021/12/04 02:05:24;;;;;;;;;52.75;46.75;;;;;4.87;99.22;100048.13;4954796;28;11193;-67
2021/12/04 02:07:50;;;;;;;;;69.00;50.75;;;;;4.87;99.39;100042.94;4954717;28;8800;-68
2021/12/04 02:10:15;;;;;;;;;65.50;53.25;;;;;4.83;99.16;100033.38;4954333;28;8815;-68
2021/12/04 02:12:40;;;;;;;;;57.50;48.25;;;;;4.88;99.26;100041.25;4954763;28;8796;-67
2021/12/04 02:15:10;;;;;;;;;63.50;52.00;;;;;4.88;99.33;100043.84;4954847;28;8792;-67
2021/12/04 02:17:37;;;;;;;;;62.75;51.25;;;;;4.92;99.31;100045.69;4953987;28;9587;-67
2021/12/04 02:20:09;;;;;;;;;67.50;53.50;;;;;4.93;99.11;100042.28;4954304;28;11353;-67
2021/12/04 02:22:35;;;;;;;;;62.75;53.75;;;;;4.91;99.34;100045.66;4954560;28;11315;-67
2021/12/04 02:25:00;;;;;;;;;58.25;48.25;;;;;4.91;99.16;100038.78;4953476;28;11217;-66
2021/12/04 02:27:25;;;;;;;;;59.75;46.75;;;;;4.91;99.34;100030.16;4954541;28;8796;-67
2021/12/04 02:29:51;;;;;;;;;66.75;50.50;;;;;4.92;99.54;100037.06;4953685;28;8794;-67
2021/12/04 02:32:19;;;;;;;;;57.75;45.75;;;;;4.94;99.21;100035.41;4954546;28;8788;-67
2021/12/04 02:34:44;;;;;;;;;56.25;47.25;;;;;4.95;99.52;100038.00;4954309;28;8811;-67
2021/12/04 02:37:09;;;;;;;;;68.75;53.00;;;;;4.91;99.32;100037.91;4953846;28;11139;-66
2021/12/04 02:39:38;;;;;;;;;50.25;44.75;;;;;4.93;99.45;100034.53;4954376;28;8919;-67
2021/12/04 02:42:06;;;;;;;;;70.25;57.25;;;;;4.96;99.42;100036.31;4954103;28;8772;-67
2021/12/04 02:44:38;;;;;;;;;62.00;49.00;;;;;4.93;99.21;100031.94;4953604;28;11197;-67
2021/12/04 02:47:04;;;;;;;;;64.00;51.25;;;;;4.93;99.46;100041.41;4954078;28;11053;-67
2021/12/04 02:49:29;;;;;;;;;51.25;42.00;;;;;4.94;99.15;100032.81;4954452;28;10947;-67
2021/12/04 02:52:05;;;;;;;;;63.25;49.50;;;;;4.96;99.27;100029.44;4952884;28;10816;-67
2021/12/04 02:54:33;;;;;;;;;65.00;51.75;;;;;4.98;99.36;100021.75;4953630;28;8819;-68
2021/12/04 02:56:59;;;;;;;;;68.00;50.50;;;;;4.98;99.39;100020.03;4953708;28;11080;-67
2021/12/04 02:59:25;;;;;;;;;71.50;53.75;;;;;4.94;99.56;100020.78;4953333;28;11420;-67
2021/12/04 03:01:55;;;;;;;;;67.00;52.50;;;;;4.95;99.20;100021.66;4953766;28;8796;-67
2021/12/04 03:04:24;;;;;;;;;70.75;53.00;;;;;4.97;99.53;100017.38;4953977;28;11242;-67
2021/12/04 03:06:52;;;;;;;;;62.75;49.25;;;;;4.96;99.62;100016.50;4952867;28;11241;-67
2021/12/04 03:09:18;;;;;;;;;68.50;51.50;;;;;4.97;99.46;100022.56;4953934;28;11124;-67
2021/12/04 03:11:50;;;;;;;;;64.75;50.50;;;;;4.91;99.62;100024.97;4953622;28;11531;-67
2021/12/04 03:14:17;;;;;;;;;54.00;44.75;;;;;4.92;99.82;100024.13;4953189;28;11151;-66
2021/12/04 03:16:45;;;;;;;;;69.00;54.00;;;;;4.93;99.69;100005.19;4953197;28;11151;-67
2021/12/04 03:19:10;;;;;;;;;68.25;53.00;;;;;4.87;100.00;99999.00;4952838;28;12299;-67
2021/12/04 03:21:37;;;;;;;;;69.50;55.50;;;;;4.93;99.70;100006.06;4953288;28;11009;-66
2021/12/04 03:24:07;;;;;;;;;61.00;47.25;;;;;4.92;99.87;100003.44;4953190;28;8828;-67
2021/12/04 03:26:34;;;;;;;;;65.50;51.75;;;;;4.89;100.00;99991.28;4952856;28;12055;-66
2021/12/04 03:29:03;;;;;;;;;64.25;48.75;;;;;4.90;100.00;99985.31;4952919;28;11984;-67
2021/12/04 03:42:06;;;;;;;;;57.50;46.75;;;;;4.95;100.00;99975.94;4952204;28;11179;-66
2021/12/04 03:44:32;;;;;;;;;55.50;46.25;;;;;4.92;100.00;99965.53;4953304;28;11216;-66
2021/12/04 03:46:59;;;;;;;;;63.75;51.00;;;;;4.88;100.00;99956.78;4953194;28;8800;-66
2021/12/04 03:49:30;;;;;;;;;68.25;52.75;;;;;4.92;100.00;99959.47;4952433;28;8823;-67
2021/12/04 03:51:55;;;;;;;;;65.75;51.25;;;;;4.93;100.00;99962.13;4952199;28;11417;-67
2021/12/04 03:54:21;;;;;;;;;66.25;53.75;;;;;4.94;100.00;99963.00;4952585;28;10986;-67
2021/12/04 03:56:46;;;;;;;;;69.75;54.00;;;;;4.98;100.00;99964.84;4952728;28;8824;-67
2021/12/04 03:59:14;;;;;;;;;60.25;49.00;;;;;4.99;100.00;99966.56;4952811;28;8887;-67
2021/12/04 04:01:40;;;;;;;;;58.25;48.00;;;;;4.97;100.00;99968.25;4951793;28;9493;-67
2021/12/04 04:04:05;;;;;;;;;71.50;55.00;;;;;4.92;100.00;99962.06;4952894;28;11287;-67
2021/12/04 04:06:30;;;;;;;;;67.50;55.00;;;;;4.93;100.00;99956.06;4952842;28;8819;-67
2021/12/04 04:08:56;;;;;;;;;63.50;50.50;;;;;4.93;100.00;99969.00;4952086;28;8833;-67
2021/12/04 04:11:21;;;;;;;;;63.50;52.25;;;;;4.98;100.00;99951.91;4953043;28;8878;-67
2021/12/04 04:13:46;;;;;;;;;67.50;54.00;;;;;5.02;100.00;99959.81;4952542;28;8796;-67
2021/12/04 04:16:13;;;;;;;;;67.75;54.00;;;;;5.06;100.00;99960.78;4952264;28;8831;-66
2021/12/04 04:18:39;;;;;;;;;69.75;54.25;;;;;5.08;100.00;99954.81;4953331;28;8799;-66
2021/12/04 04:21:05;;;;;;;;;70.75;56.25;;;;;4.97;100.00;99948.44;4952552;29;11275;-66
2021/12/04 04:23:30;;;;;;;;;72.50;54.75;;;;;5.02;100.00;99946.00;4951910;28;8906;-65
2021/12/04 04:25:55;;;;;;;;;67.00;52.25;;;;;5.07;100.00;99946.97;4952801;28;8955;-67
2021/12/04 04:28:21;;;;;;;;;69.25;54.75;;;;;5.04;100.00;99949.50;4952944;28;8816;-68
2021/12/04 04:30:46;;;;;;;;;73.50;55.00;;;;;5.05;100.00;99940.91;4951956;28;8869;-67
2021/12/04 04:33:14;;;;;;;;;73.50;56.50;;;;;5.05;100.00;99938.31;4952910;28;8926;-67
2021/12/04 04:35:42;;;;;;;;;70.50;53.00;;;;;5.06;100.00;99935.75;4952740;28;8857;-66
2021/12/04 04:57:42;;;;;;;;;63.50;49.75;;;;;5.20;100.00;99924.13;4952241;28;11275;-68
2021/12/04 05:00:34;;;;;;;;;65.25;50.25;;;;;5.10;100.00;99916.91;4952723;28;10864;-67
2021/12/04 05:10:16;;;;;;;;;69.75;53.50;;;;;5.08;100.00;99917.72;4952195;28;11062;-66
2021/12/04 05:11:37;;;;;;;;;65.25;52.50;;;;;5.11;100.00;99916.09;4952110;29;10956;-67
2021/12/04 05:14:04;;;;;;;;;69.25;54.50;;;;;5.09;100.00;99914.28;4952217;28;11210;-67
2021/12/04 05:16:41;;;;;;;;;63.50;49.50;;;;;5.05;100.00;99908.16;4952340;28;12041;-66
2021/12/04 05:19:13;;;;;;;;;72.00;57.50;;;;;5.11;100.00;99907.44;4954085;28;11060;-67
2021/12/04 05:21:39;;;;;;;;;68.00;51.75;;;;;5.04;100.00;99900.34;4955636;28;11302;-67
2021/12/04 05:24:04;;;;;;;;;70.50;54.50;;;;;5.10;100.00;99903.13;4955651;28;11097;-66
2021/12/04 05:26:30;;;;;;;;;65.75;53.25;;;;;5.06;100.00;99896.09;4954770;28;9512;-67
2021/12/04 05:28:59;;;;;;;;;66.00;50.00;;;;;5.05;100.00;99894.34;4955484;28;8890;-66
2021/12/04 05:31:25;;;;;;;;;64.50;54.25;;;;;4.98;100.00;99880.38;4955772;28;8829;-65
2021/12/04 05:33:52;;;;;;;;;63.25;51.75;;;;;5.10;100.00;99890.19;4954655;28;11631;-66
2021/12/04 05:36:18;;;;;;;;;67.25;52.25;;;;;5.13;100.00;99890.28;4955558;28;8900;-66
2021/12/04 05:38:43;;;;;;;;;68.25;52.75;;;;;5.07;100.00;99887.50;4954851;28;11059;-66
2021/12/04 05:41:09;;;;;;;;;67.75;54.25;;;;;5.01;100.00;99883.03;4954864;28;8802;-67
2021/12/04 05:43:40;;;;;;;;;66.50;52.25;;;;;5.06;100.00;99893.53;4955466;28;8842;-67
2021/12/04 05:46:13;;;;;;;;;62.00;49.75;;;;;5.04;100.00;99900.34;4955401;28;8808;-66
2021/12/04 05:48:50;;;;;;;;;63.25;49.75;;;;;5.07;100.00;99893.53;4954447;28;11251;-66
2021/12/04 05:51:37;;;;;;;;;66.00;54.00;;;;;5.06;100.00;99881.44;4955462;28;11142;-66
2021/12/04 05:56:46;;;;;;;;;66.25;51.00;;;;;5.10;100.00;99885.03;4954657;28;11159;-67
2021/12/04 05:59:12;;;;;;;;;67.25;51.50;;;;;5.11;100.00;99879.88;4954869;28;11024;-67
2021/12/04 06:01:40;;;;;;;;;57.00;49.25;;;;;5.09;100.00;99888.44;4954683;28;8804;-66
2021/12/04 06:04:06;;;;;;;;;67.25;53.50;;;;;5.10;100.00;99882.44;4955276;28;8839;-67
2021/12/04 06:06:31;;;;;;;;;60.75;49.50;;;;;5.11;100.00;99873.81;4955022;28;11212;-67
2021/12/04 06:08:56;;;;;;;;;65.00;49.00;;;;;5.12;100.00;99873.88;4954241;28;8792;-67
2021/12/04 06:11:22;;;;;;;;;67.00;53.50;;;;;5.16;100.00;99878.28;4954931;28;8803;-67
2021/12/04 06:13:48;;;;;;;;;66.50;53.50;;;;;5.14;100.00;99882.53;4954635;28;8890;-67
2021/12/04 06:16:14;;;;;;;;;66.25;49.75;;;;;5.17;100.00;99884.34;4954565;28;8831;-67
2021/12/04 06:18:41;;;;;;;;;65.50;51.75;;;;;5.18;100.00;99876.59;4954721;28;11162;-67
2021/12/04 06:23:52;;;;;;;;;58.25;50.00;;;;;5.21;100.00;99873.25;4953618;28;11087;-67
2021/12/04 06:26:22;;;;;;;;;62.75;53.75;;;;;5.17;100.00;99863.66;4954728;28;11104;-67
2021/12/04 06:28:48;;;;;;;;;65.75;52.00;;;;;5.18;100.00;99871.44;4953781;28;11049;-67
2021/12/04 06:31:14;;;;;;;;;66.00;51.75;;;;;5.25;100.00;99860.41;4953462;28;11002;-67
2021/12/04 06:33:41;;;;;;;;;71.25;55.25;;;;;5.19;100.00;99861.97;4954724;28;9529;-66
2021/12/04 06:36:07;;;;;;;;;66.00;50.50;;;;;5.19;100.00;99869.72;4953873;28;8815;-66
2021/12/04 06:38:33;;;;;;;;;68.75;53.75;;;;;5.16;100.00;99874.81;4954421;28;11283;-68
2021/12/04 06:40:59;;;;;;;;;68.75;53.25;;;;;5.16;100.00;99862.78;4954030;28;11260;-67
2021/12/04 06:43:27;;;;;;;;;68.75;53.50;;;;;5.11;100.00;99863.47;4953697;28;11272;-67
2021/12/04 06:45:58;;;;;;;;;73.25;55.50;;;;;5.16;100.00;99867.94;4954010;28;8843;-67
2021/12/04 06:48:31;;;;;;;;;65.00;50.50;;;;;5.18;100.00;99868.84;4954391;28;10982;-66
2021/12/04 06:51:01;;;;;;;;;63.25;51.25;;;;;5.20;100.00;99869.78;4953168;28;11061;-67
2021/12/04 06:53:51;;;;;;;;;59.00;48.75;;;;;5.19;100.00;99868.03;4954004;28;10790;-68
2021/12/04 06:56:18;;;;;;;;;62.50;45.50;;;;;5.10;100.00;99870.34;4954152;28;10884;-68
2021/12/04 06:58:44;;;;;;;;;65.75;48.75;;;;;5.16;100.00;99867.94;4953151;28;10716;-68
2021/12/04 07:01:12;;;;;;;;;64.00;48.25;;;;;5.18;100.00;99871.44;4954069;28;11666;-66
2021/12/04 07:03:38;;;;;;;;;68.25;57.00;;;;;5.16;100.00;99870.53;4954102;28;8846;-67
2021/12/04 07:06:04;;;;;;;;;66.75;52.75;;;;;5.26;100.00;99869.06;4952854;28;11000;-66
2021/12/04 07:08:29;;;;;;;;;59.50;50.25;;;;;5.22;100.00;99859.47;4953600;28;10852;-67
2021/12/04 07:10:55;;;;;;;;;70.75;53.75;;;;;5.23;100.00;99874.16;4953598;28;8815;-66
2021/12/04 07:13:20;;;;;;;;;63.00;50.75;;;;;5.15;100.00;99873.06;4953191;28;8811;-66
2021/12/04 07:15:46;;;;;;;;;63.50;47.00;;;;;5.01;100.00;99849.41;4953429;28;8804;-67
2021/12/04 07:18:12;;;;;;;;;59.75;49.50;;;;;5.08;100.00;99851.34;4952788;28;8804;-67
2021/12/04 07:20:38;;;;;;;;;64.00;50.50;;;;;5.11;100.00;99848.81;4953697;28;8903;-67
2021/12/04 07:23:04;;;;;;;;;61.25;48.75;;;;;5.10;100.00;99841.91;4952551;28;11001;-67
2021/12/04 07:25:29;;;;;;;;;48.50;45.00;;;;;5.11;100.00;99856.59;4952494;28;8890;-66
2021/12/04 07:27:54;;;;;;;;;62.25;48.75;;;;;5.08;100.00;99846.16;4953301;28;8913;-67
2021/12/04 07:30:22;;;;;;;;;57.75;47.00;;;;;5.05;100.00;99853.84;4953401;28;8932;-67
2021/12/04 07:32:48;;;;;;;;;44.00;40.25;;;;;5.08;100.00;99858.22;4952344;28;8808;-68
2021/12/04 07:35:14;;;;;;;;;54.25;47.25;;;;;5.07;100.00;99862.50;4952946;28;10427;-67
2021/12/04 07:37:40;;;;;;;;;47.50;43.00;;;;;5.05;100.00;99852.97;4953263;28;8898;-67
2021/12/04 07:40:06;;;;;;;;;54.50;45.50;;;;;5.04;100.00;99843.44;4952777;28;10532;-67
2021/12/04 07:42:32;;;;;;;;;46.75;41.25;;;;;4.97;100.00;99824.31;4952074;28;9505;-67
2021/12/04 07:45:00;;;;;;;;;50.75;41.75;;;;;4.98;100.00;99836.41;4952008;28;10446;-67
2021/12/04 07:47:26;;;;;;;;;44.25;39.25;;;;;4.98;100.00;99831.25;4951905;28;8823;-68
2021/12/04 07:49:52;;;;;;;;;45.50;39.75;;;;;4.92;100.00;99807.78;4952579;28;10286;-67
2021/12/04 07:52:18;;;;;;;;;52.00;41.75;;;;;4.88;100.00;99821.44;4952440;28;10260;-67
2021/12/04 07:54:43;;;;;;;;;46.50;41.50;;;;;4.86;100.00;99805.91;4951674;28;10430;-67
2021/12/04 07:57:08;;;;;;;;;39.25;37.25;;;;;4.87;100.00;99801.63;4952216;28;9591;-67
2021/12/04 07:59:34;;;;;;;;;40.75;40.00;;;;;4.87;100.00;99815.41;4952282;28;9800;-69
2021/12/04 08:02:02;;;;;;;;;44.75;39.00;;;;;4.82;100.00;99803.19;4957094;28;8813;-67
2021/12/04 08:04:27;;;;;;;;;44.50;36.25;;;;;4.76;100.00;99803.03;4971644;28;8853;-67
2021/12/04 08:06:53;;;;;;;;;33.25;31.25;;;;;4.68;100.00;99802.84;4971687;28;10263;-66
2021/12/04 08:09:19;;;;;;;;;40.00;32.50;;;;;4.69;100.00;99808.84;4970276;28;8879;-67
2021/12/04 08:11:44;;;;;;;;;19.25;18.25;;;;;4.63;100.00;99801.81;4971456;28;8976;-68
2021/12/04 08:14:10;;;;;;;;;27.25;24.50;;;;;4.60;100.00;99799.16;4971635;28;8825;-67
2021/12/04 08:16:35;;;;;;;;;23.25;21.50;;;;;4.60;100.00;99800.84;4971002;28;8849;-66
2021/12/04 08:19:01;;;;;;;;;27.50;25.75;;;;;4.56;100.00;99793.84;4970492;28;8821;-66
2021/12/04 08:21:26;;;;;;;;;20.00;18.00;;;;;4.54;100.00;99808.41;4971512;28;8797;-67
2021/12/04 08:23:52;;;;;;;;;26.25;25.75;;;;;4.64;100.00;99803.56;4971194;28;8931;-67
2021/12/04 08:26:19;;;;;;;;;26.00;21.75;;;;;4.63;100.00;99811.28;4972025;28;8836;-66
2021/12/04 08:28:45;;;;;;;;;31.75;30.25;;;;;4.64;100.00;99821.66;4969488;28;8805;-67
2021/12/04 08:31:10;;;;;;;;;31.75;28.50;;;;;4.65;100.00;99825.13;4971835;28;10898;-67
2021/12/04 08:33:39;;;;;;;;;30.50;29.50;;;;;4.55;100.00;99826.56;4971586;28;8846;-67
2021/12/04 08:36:05;;;;;;;;;29.75;24.25;;;;;4.48;100.00;99828.91;4971467;28;8849;-67
2021/12/04 08:38:32;;;;;;;;;27.25;24.50;;;;;4.45;100.00;99834.88;4970652;28;10053;-67
2021/12/04 08:41:00;;;;;;;;;36.50;31.75;;;;;4.34;100.00;99825.94;4971556;28;10066;-67
2021/12/04 08:43:25;;;;;;;;;27.00;25.25;;;;;4.43;100.00;99830.47;4970699;28;10236;-67
2021/12/04 08:45:50;;;;;;;;;32.25;29.50;;;;;4.44;100.00;99820.19;4971198;28;10202;-67
2021/12/04 08:48:16;;;;;;;;;33.00;26.75;;;;;4.47;100.00;99829.75;4969994;28;8801;-67
2021/12/04 08:50:42;;;;;;;;;29.00;29.00;;;;;4.47;100.00;99829.75;4970716;28;8801;-67
2021/12/04 08:53:08;;;;;;;;;34.50;30.50;;;;;4.55;100.00;99829.16;4971880;28;8789;-67
2021/12/04 08:55:38;;;;;;;;;30.50;29.25;;;;;4.55;100.00;99816.22;4975128;28;10081;-67
2021/12/04 08:58:05;;;;;;;;;43.00;32.75;;;;;4.59;100.00;99806.84;4974435;28;10140;-67
2021/12/04 09:00:34;;;;;;;;;29.75;27.25;;;;;4.60;100.00;99800.84;4975576;28;10066;-67
2021/12/04 09:03:01;;;;;;;;;31.25;26.75;;;;;4.61;100.00;99792.28;4974755;28;10025;-66
2021/12/04 09:05:26;;;;;;;;;37.00;33.25;;;;;4.69;100.00;99791.63;4974680;28;10208;-67
2021/12/04 09:07:52;;;;;;;;;36.25;28.25;;;;;4.63;100.00;99791.47;4974996;28;9992;-67
2021/12/04 09:10:18;;;;;;;;;32.75;31.50;;;;;4.75;100.00;99794.41;4975346;28;8824;-67
2021/12/04 09:12:44;;;;;;;;;33.50;31.50;;;;;4.59;100.00;99791.34;4974465;28;8793;-67
2021/12/04 09:15:12;;;;;;;;;24.25;21.25;;;;;4.58;100.00;99792.16;4974905;28;10477;-68
2021/12/04 09:17:38;;;;;;;;;42.50;36.25;;;;;4.59;100.00;99783.59;4974613;28;10238;-66
2021/12/04 09:20:07;;;;;;;;;47.00;39.25;;;;;4.69;100.00;99788.16;4975129;28;10247;-67
2021/12/04 09:22:35;;;;;;;;;45.25;37.75;;;;;4.75;100.00;99788.34;4974895;28;8810;-69
2021/12/04 09:25:04;;;;;;;;;39.75;35.00;;;;;4.64;100.00;99793.25;4973870;28;10614;-65
2021/12/04 09:27:57;;;;;;;;;50.00;37.25;;;;;4.68;100.00;99784.75;4974069;28;10575;-70
2021/12/04 09:36:29;;;;;;;;;56.25;48.00;;;;;4.61;100.00;99785.38;4974156;28;11569;-67
2021/12/04 10:04:06;;;;;;;;;55.75;42.50;;;;;4.63;100.00;99744.06;4990910;28;10799;-70
2021/12/04 10:20:50;;;;;;;;;52.00;45.25;;;;;4.66;100.00;99715.72;4973910;28;11629;-69
2021/12/04 10:33:45;;;;;;;;;49.50;43.00;;;;;4.83;99.88;99720.53;4972608;28;11389;-67
2021/12/04 10:36:11;;;;;;;;;47.75;42.75;;;;;4.84;99.89;99716.19;4972570;28;10793;-69
2021/12/04 10:38:45;;;;;;;;;49.25;43.75;;;;;4.74;99.92;99712.50;4990562;28;10765;-69
2021/12/04 10:41:13;;;;;;;;;58.25;45.75;;;;;4.91;99.94;99699.16;4993089;28;10634;-69
2021/12/04 10:43:38;;;;;;;;;51.50;44.00;;;;;4.99;99.86;99706.25;4990258;28;10938;-68
2021/12/04 10:46:13;;;;;;;;;42.75;39.25;;;;;4.96;99.57;99707.88;4982333;28;10860;-68
2021/12/04 10:48:48;;;;;;;;;47.00;42.25;;;;;4.92;99.52;99709.50;4973275;28;8856;-67
2021/12/04 10:53:56;;;;;;;;;39.50;38.50;;;;;4.85;99.27;99720.53;4971653;28;10669;-68
2021/12/04 10:56:53;;;;;;;;;52.00;42.75;;;;;4.96;99.52;99701.00;4970712;28;10336;-68
2021/12/04 11:02:00;;;;;;;;;46.00;41.25;;;;;5.06;99.33;99704.72;4972990;28;10543;-68
2021/12/04 11:04:42;;;;;;;;;51.00;42.50;;;;;4.90;99.26;99698.28;4972808;28;8852;-69
2021/12/04 11:07:51;;;;;;;;;53.00;42.75;;;;;4.96;99.49;99708.75;4986941;28;10684;-68
2021/12/04 11:21:42;;;;;;;;;52.50;45.00;;;;;5.01;99.51;99670.09;4992050;28;10648;-70
2021/12/04 11:27:27;;;;;;;;;54.75;44.25;;;;;5.12;99.74;99660.88;4984381;28;10803;-66
2021/12/04 11:46:25;;;;;;;;;61.25;46.50;;;;;5.11;99.40;99626.38;4952555;28;10895;-69
2021/12/04 11:48:51;;;;;;;;;56.00;45.25;;;;;5.14;99.37;99635.91;4953044;28;10976;-69
2021/12/04 11:51:21;;;;;;;;;69.00;52.50;;;;;5.06;99.46;99624.53;4952620;28;11030;-69
2021/12/04 11:53:51;;;;;;;;;64.00;51.50;;;;;5.12;99.27;99629.84;4952081;28;10960;-68
2021/12/04 11:56:27;;;;;;;;;59.25;47.25;;;;;5.03;99.49;99620.13;4952697;28;11096;-68
2021/12/04 11:58:52;;;;;;;;;68.25;55.00;;;;;4.89;99.44;99567.22;4952465;28;10961;-67
2021/12/04 12:01:36;;;;;;;;;65.00;51.00;;;;;5.19;99.47;99605.84;4952161;28;12288;-67
2021/12/04 12:04:14;;;;;;;;;56.00;45.00;;;;;5.33;99.66;99619.97;4952504;28;8803;-68
2021/12/04 12:06:45;;;;;;;;;65.50;51.00;;;;;5.05;99.40;99565.88;4952254;28;11732;-67
2021/12/04 12:09:15;;;;;;;;;62.00;48.50;;;;;5.34;98.95;99604.50;4952792;28;11613;-69
2021/12/04 12:11:53;;;;;;;;;48.75;38.00;;;;;5.47;99.24;99605.66;4952109;28;10812;-70
2021/12/04 12:14:36;;;;;;;;;57.25;49.25;;;;;5.42;99.56;99603.78;4951898;28;10721;-69
2021/12/04 12:17:02;;;;;;;;;63.25;49.75;;;;;5.05;98.69;99602.97;4952499;28;11119;-71
2021/12/04 12:19:35;;;;;;;;;66.00;54.00;;;;;5.38;99.45;99612.31;4952674;28;11216;-69
2021/12/04 12:22:23;;;;;;;;;64.75;48.50;;;;;5.37;99.60;99619.19;4951457;28;8804;-68
2021/12/04 12:27:42;;;;;;;;;39.75;37.50;;;;;5.27;99.71;99619.84;4951997;28;11033;-68
2021/12/04 12:33:32;;;;;;;;;60.50;46.50;;;;;5.35;100.00;99611.44;4956665;28;10565;-70
2021/12/04 12:36:03;;;;;;;;;60.25;47.00;;;;;5.25;100.00;99609.44;4965923;28;10477;-70
2021/12/04 12:38:41;;;;;;;;;53.75;43.50;;;;;5.21;100.00;99609.38;4975708;28;11187;-70
2021/12/04 12:41:30;;;;;;;;;44.75;42.00;;;;;5.33;100.00;99609.63;4975033;28;10870;-70
2021/12/04 12:44:09;;;;;;;;;46.75;42.75;;;;;5.40;100.00;99597.72;4982726;28;10560;-70
2021/12/04 12:46:34;;;;;;;;;46.00;39.25;;;;;5.23;100.00;99600.78;4994588;28;11060;-70
2021/12/04 12:49:01;;;;;;;;;39.25;35.50;;;;;5.25;100.00;99600.81;4993793;28;10516;-71
2021/12/04 12:51:35;;;;;;;;;47.25;38.00;;;;;5.33;100.00;99588.91;4995108;28;8801;-69
2021/12/04 12:54:08;;;;;;;;;43.50;36.00;;;;;5.55;100.00;99593.72;4991858;28;10446;-69
2021/12/04 12:56:37;;;;;;;;;47.75;39.75;;;;;5.34;100.00;99585.50;4963151;28;10565;-71
2021/12/04 12:59:18;;;;;;;;;43.25;37.75;;;;;5.08;100.00;99590.09;4955695;28;10544;-71
2021/12/04 13:13:34;;;;;;;;;37.00;31.25;;;;;5.39;100.00;99585.63;4962482;28;10387;-74
2021/12/04 13:16:06;;;;;;;;;39.25;34.25;;;;;5.61;100.00;99580.03;4994135;28;10658;-73
2021/12/04 13:18:33;;;;;;;;;41.75;37.00;;;;;5.41;100.00;99582.19;4959743;28;11109;-73
2021/12/04 13:21:08;;;;;;;;;46.75;39.00;;;;;5.24;100.00;99583.56;4955612;28;11012;-73
2021/12/04 13:23:38;;;;;;;;;39.50;36.50;;;;;5.36;100.00;99587.28;4954938;28;10375;-73
2021/12/04 13:26:12;;;;;;;;;39.50;32.25;;;;;5.51;100.00;99576.38;4954703;28;10594;-72
2021/12/04 13:28:42;;;;;;;;;35.75;31.50;;;;;5.49;100.00;99590.13;4955707;28;10407;-72
2021/12/04 13:31:07;;;;;;;;;32.50;29.50;;;;;5.31;100.00;99585.44;4954242;28;10504;-72
2021/12/04 13:33:37;;;;;;;;;36.25;30.75;;;;;5.38;100.00;99583.84;4955559;28;10639;-72
2021/12/04 13:36:17;;;;;;;;;44.25;34.25;;;;;5.49;100.00;99583.25;4955325;28;8779;-72
2021/12/04 13:38:43;;;;;;;;;19.25;16.25;;;;;5.49;100.00;99595.31;4953445;28;10393;-73
2021/12/04 13:41:10;;;;;;;;;25.50;23.25;;;;;5.39;100.00;99590.78;4955177;28;10273;-72
2021/12/04 13:43:35;;;;;;;;;18.50;18.00;;;;;5.44;100.00;99592.63;4955104;28;9689;-72
2021/12/04 13:46:03;;;;;;;;;25.75;23.00;;;;;5.52;100.00;99596.25;4953928;28;9891;-69
2021/12/04 13:48:31;;;;;;;;;21.25;19.75;;;;;5.55;100.00;99596.31;4955406;28;9508;-68
2021/12/04 13:50:59;;;;;;;;;15.50;15.50;;;;;5.48;100.00;99601.31;4955010;28;9900;-69
2021/12/04 13:53:27;;;;;;;;;21.75;16.50;;;;;5.48;100.00;99599.59;4954694;28;9992;-69
2021/12/04 13:56:16;;;;;;;;;7.75;6.25;;;;;5.51;100.00;99597.09;4954829;28;9931;-69
2021/12/04 13:58:47;;;;;;;;;11.50;9.25;;;;;5.56;100.00;99599.78;4953962;28;9579;-69
2021/12/04 14:01:13;;;;;;;;;8.75;8.75;;;;;5.49;100.00;99595.31;4954581;28;9650;-69
2021/12/04 14:03:38;;;;;;;;;1.33;1.00;;;;;5.42;99.87;99596.91;4955114;28;9583;-69
2021/12/04 14:06:10;;;;;;;;;4.00;4.00;;;;;5.55;99.51;99604.06;4953787;28;8815;-69
2021/12/04 14:08:35;;;;;;;;;1.67;1.67;;;;;5.61;98.91;99609.41;4955090;28;8936;-68
2021/12/04 14:11:01;;;;;;;;;1.67;0.67;;;;;5.57;98.64;99602.41;4955073;28;9401;-69
2021/12/04 14:13:26;;;;;;;;;1.00;1.00;;;;;5.55;98.41;99611.00;4954352;28;8935;-69